• Join FlightAware (Why Join?)
  • Login
  • US Flag 
03:32PM EST


 

Airport Tracker/Info


-or-


 

Live Flight TrackerFlight Track Log ✈ AAL2007 ✈ 26-Apr-2013 ✈ KORD - KAUS

Flight Track Log - Related Links

Times and Time Zones

All times are in EDT time to prevent confusion due to time zone crossing. See the AAL2007 flight status page for this flight to view local times or setup timezone preferences in your user account.

Time Position Orientation Groundspeed Altitude Reporting Facility
EDT Latitude Longitude Course Direction KTS MPH feet Rate Location/Type
06:15PM 41.9667 -87.9500 207° Southwest 174 200 2,200  Level Chicago TRACON
06:16PM 41.9167 -87.9833 206° Southwest 202 232 4,200 1,440 Climbing Chicago TRACON
06:17PM 41.7315 -88.1572 201° Southwest  Level Estimated
06:17PM 41.8500 -88.0000 191° South 246 283 5,100  Level Chicago TRACON
06:17PM 41.8247 -87.9981 177° South 232 267 5,800 2,460 Climbing Chicago Center
06:18PM 41.6480 -88.2403 197° South  Level Estimated
06:18PM 41.7556 -88.0153 191° South 260 299 8,800  Level Chicago Center
06:19PM 41.5488 -88.1985 162° South  Level FlightAware Approximate
06:20PM 41.4656 -88.2819 207° Southwest  Level Estimated
06:20PM 41.6847 -88.0486 199° South 271 312 11,200  Level Chicago Center
06:21PM 41.6072 -88.0842 199° South 294 338 13,300 2,040 Climbing Chicago Center
06:22PM 41.5031 -88.1339 200° South 342 394 15,500 1,980 Climbing Chicago Center
06:23PM 41.4128 -88.1758 199° South 356 410 17,500 1,800 Climbing Chicago Center
06:24PM 41.3183 -88.2186 199° South 366 421 19,300 1,920 Climbing Chicago Center
06:25PM 41.2203 -88.2633 199° South 373 429 21,500 1,980 Climbing Chicago Center
06:26PM 41.1050 -88.3156 199° South 370 426 23,400 1,740 Climbing Chicago Center
06:27PM 41.0047 -88.3606 199° South 377 434 25,200 1,320 Climbing Chicago Center
06:28PM 40.9031 -88.4064 199° South 386 444 26,200 960 Climbing Chicago Center
06:29PM 40.7967 -88.4528 198° South 401 461 27,300 1,020 Climbing Chicago Center
06:30PM 40.6869 -88.5022 199° South 414 476 28,400 1,320 Climbing Chicago Center
06:31PM 40.5561 -88.5606 199° South 416 479 30,100 1,200 Climbing Chicago Center
06:32PM 40.4592 -88.6039 199° South 415 478 30,900 720 Climbing Chicago Center
06:33PM 40.3481 -88.6517 198° South 418 481 31,600 480 Climbing Chicago Center
06:34PM 40.2467 -88.7564 218° Southwest 383 441 32,000 180 Climbing Chicago Center
06:35PM 40.1717 -88.8525 224° Southwest 375 432 32,000  Level Chicago Center
06:36PM 40.1114 -88.9278 224° Southwest 376 433 32,000  Level Kansas City Center
06:37PM 40.0375 -89.0211 224° Southwest 372 428 32,000  Level Kansas City Center
06:38PM 39.9633 -89.1150 224° Southwest 369 425 32,000  Level Kansas City Center
06:39PM 39.8894 -89.2094 224° Southwest 370 426 32,000  Level Kansas City Center
06:40PM 39.8139 -89.3039 224° Southwest 373 429 32,000  Level Kansas City Center
06:41PM 39.7394 -89.3975 224° Southwest 372 428 32,000  Level Kansas City Center
06:42PM 39.6522 -89.5064 224° Southwest 372 428 32,000 420 Level Kansas City Center
06:43PM 39.5775 -89.6000 224° Southwest 374 430 32,900 780 Climbing Kansas City Center
06:44PM 39.5056 -89.6903 224° Southwest 365 420 33,700 480 Climbing Kansas City Center
06:45PM 39.4333 -89.7794 224° Southwest 361 415 34,000 120 Climbing Kansas City Center
06:46PM 39.3614 -89.8675 223° Southwest 358 412 34,000  Level Kansas City Center
06:47PM 39.2758 -89.9742 224° Southwest 358 412 34,000  Level Kansas City Center
06:48PM 39.2042 -90.0628 224° Southwest 358 412 34,000  Level Kansas City Center
06:49PM 39.1317 -90.1511 223° Southwest 359 413 34,000  Level Kansas City Center
06:50PM 39.0603 -90.2403 224° Southwest 360 414 34,000  Level Kansas City Center
06:51PM 38.9886 -90.3275 223° Southwest 358 412 34,000  Level Kansas City Center
06:52PM 38.9028 -90.4328 224° Southwest 355 409 34,000  Level Kansas City Center
06:53PM 38.8261 -90.5233 223° Southwest 372 428 34,000  Level Kansas City Center
06:54PM 38.7489 -90.6106 221° Southwest 369 425 34,000  Level Kansas City Center
06:55PM 38.6792 -90.6922 222° Southwest 369 425 34,000  Level Kansas City Center
06:57PM 38.6031 -90.7783 221° Southwest 370 426 34,000  Level Kansas City Center
06:58PM 38.5117 -90.8842 222° Southwest 370 426 34,000  Level Kansas City Center
06:59PM 38.4353 -90.9722 222° Southwest 372 428 34,000  Level Kansas City Center
07:00PM 38.3569 -91.0606 221° Southwest 377 434 34,000  Level Kansas City Center
07:01PM 38.2783 -91.1486 221° Southwest 376 433 34,000  Level Kansas City Center
07:02PM 38.1997 -91.2375 222° Southwest 378 435 34,000  Level Kansas City Center
07:03PM 38.1078 -91.3425 222° Southwest 384 442 34,000  Level Kansas City Center
07:04PM 38.0264 -91.4325 221° Southwest 385 443 34,000  Level Kansas City Center
07:05PM 37.9475 -91.5231 222° Southwest 380 437 34,000  Level Kansas City Center
07:06PM 37.8686 -91.6119 222° Southwest 376 433 34,000  Level Kansas City Center
07:07PM 37.7869 -91.7019 221° Southwest 381 438 34,000  Level Kansas City Center
07:08PM 37.7094 -91.7931 223° Southwest 380 437 34,000  Level Kansas City Center
07:09PM 37.6469 -91.9025 234° Southwest 381 438 34,000  Level Kansas City Center
07:10PM 37.5694 -92.0353 234° Southwest 386 444 34,000  Level Kansas City Center
07:11PM 37.5119 -92.1467 237° Southwest 379 436 34,000  Level Kansas City Center
07:12PM 37.4500 -92.2508 233° Southwest 372 428 34,000  Level Kansas City Center
07:13PM 37.3669 -92.3308 217° Southwest 372 428 34,000  Level Kansas City Center
07:14PM 37.2856 -92.4172 220° Southwest 377 434 34,000  Level Kansas City Center
07:15PM 37.2056 -92.5039 221° Southwest 377 434 34,000  Level Kansas City Center
07:16PM 37.1264 -92.5942 222° Southwest 378 435 34,000  Level Kansas City Center
07:17PM 37.0369 -92.6700 214° Southwest 383 441 34,000  Level Kansas City Center
07:18PM 36.9517 -92.7525 218° Southwest 384 442 34,000  Level Kansas City Center
07:19PM 36.8483 -92.8528 218° Southwest 387 445 34,000  Level Kansas City Center
07:20PM 36.8147 -92.8889 221° Southwest 397 457 34,000  Level Memphis Center
07:21PM 36.7294 -92.9717 218° Southwest 397 457 34,000  Level Memphis Center
07:22PM 36.6486 -93.0517 218° Southwest 397 457 34,000  Level Memphis Center
07:23PM 36.5633 -93.1367 219° Southwest 397 457 34,000  Level Memphis Center
07:24PM 36.4803 -93.2217 219° Southwest 397 457 34,000  Level Memphis Center
07:25PM 36.3969 -93.3014 218° Southwest 397 457 34,000  Level Memphis Center
07:26PM 36.3117 -93.3831 218° Southwest 397 457 34,000  Level Memphis Center
07:27PM 36.2283 -93.4625 218° Southwest 397 457 34,000  Level Memphis Center
07:28PM 36.1450 -93.5442 218° Southwest 392 451 34,000  Level Memphis Center
07:29PM 36.0639 -93.6231 218° Southwest 387 445 34,000  Level Memphis Center
07:30PM 35.9781 -93.7069 218° Southwest 387 445 34,000  Level Memphis Center
07:31PM 35.8947 -93.7856 217° Southwest 387 445 34,000  Level Memphis Center
07:32PM 35.8069 -93.8689 218° Southwest 387 445 34,000  Level Memphis Center
07:33PM 35.7275 -93.9472 219° Southwest 387 445 34,000  Level Memphis Center
07:34PM 35.6417 -94.0306 218° Southwest 387 445 34,000  Level Memphis Center
07:35PM 35.5581 -94.1058 216° Southwest 387 445 34,000  Level Memphis Center
07:36PM 35.4742 -94.1889 219° Southwest 387 445 34,000  Level Memphis Center
07:37PM 35.3925 -94.2639 217° Southwest 382 440 34,000  Level Memphis Center
07:38PM 35.3028 -94.3361 213° Southwest 382 440 34,000  Level Memphis Center
07:39PM 35.2108 -94.4031 211° Southwest 382 440 34,000  Level Memphis Center
07:40PM 35.1231 -94.4722 213° Southwest 382 440 34,000  Level Memphis Center
07:42PM 34.9517 -94.6094 213° Southwest 392 451 34,000  Level Fort Worth Center
07:43PM 34.8633 -94.6756 212° Southwest 382 440 34,000  Level Fort Worth Center
07:44PM 34.7750 -94.7442 213° Southwest 382 440 34,000  Level Fort Worth Center
07:45PM 34.6867 -94.8075 211° Southwest 382 440 34,000  Level Fort Worth Center
07:46PM 34.5942 -94.8783 212° Southwest 382 440 34,000  Level Fort Worth Center
07:47PM 34.5058 -94.9439 211° Southwest 382 440 34,000  Level Fort Worth Center
07:48PM 34.4175 -95.0094 211° Southwest 382 440 34,000  Level Fort Worth Center
07:49PM 34.3250 -95.0797 212° Southwest 382 440 34,000  Level Fort Worth Center
07:50PM 34.2344 -95.1475 212° Southwest 382 440 34,000  Level Fort Worth Center
07:51PM 34.1394 -95.2178 211° Southwest 382 440 34,000  Level Fort Worth Center
07:52PM 34.0508 -95.2828 211° Southwest 382 440 34,000  Level Fort Worth Center
07:53PM 33.9603 -95.3475 211° Southwest 382 440 34,000  Level Fort Worth Center
07:54PM 33.8717 -95.4147 212° Southwest 382 440 34,000  Level Fort Worth Center
07:55PM 33.7808 -95.4792 211° Southwest 387 445 34,000  Level Fort Worth Center
07:56PM 33.6919 -95.5461 212° Southwest 382 440 34,000  Level Fort Worth Center
07:57PM 33.5950 -95.6156 211° Southwest 375 432 34,000  Level Fort Worth Center
07:58PM 33.5042 -95.6847 212° Southwest 386 444 34,000  Level Fort Worth Center
07:59PM 33.4131 -95.7486 210° Southwest 381 438 34,000  Level Fort Worth Center
08:00PM 33.3222 -95.8125 210° Southwest 388 447 34,000  Level Fort Worth Center
08:01PM 33.2311 -95.8786 211° Southwest 388 447 34,000  Level Fort Worth Center
08:02PM 33.1400 -95.9447 211° Southwest 388 447 34,000  Level Fort Worth Center
08:03PM 33.0511 -96.0106 212° Southwest 382 440 34,000  Level Fort Worth Center
08:04PM 32.9578 -96.0789 212° Southwest 382 440 34,000  Level Fort Worth Center
08:05PM 32.8769 -96.1369 211° Southwest 387 445 34,000  Level Fort Worth Center
08:06PM 32.7858 -96.2000 210° Southwest 387 445 34,000 -240 Level Fort Worth Center
08:07PM 32.6925 -96.2681 212° Southwest 387 445 33,600 -900 Descending Fort Worth Center
08:08PM 32.5992 -96.3333 211° Southwest 392 451 32,200 -840 Descending Fort Worth Center
08:09PM 32.5058 -96.4008 211° Southwest 392 451 32,000 -300 Descending Fort Worth Center
08:10PM 32.3978 -96.4736 210° Southwest 397 457 31,600 -960 Descending Fort Worth Center
08:11PM 32.3022 -96.5333 208° Southwest 397 457 30,100 -1,500 Descending Fort Worth Center
08:12PM 32.1961 -96.5983 207° Southwest 408 470 28,600 -1,500 Descending Fort Worth Center
08:13PM 32.0964 -96.6606 208° Southwest 413 475 27,100 -1,560 Descending Fort Worth Center
08:14PM 31.9986 -96.7250 209° Southwest 407 468 25,500 -1,560 Descending Fort Worth Center
08:15PM 31.9050 -96.7844 208° Southwest 401 461 24,000 -1,500 Descending Fort Worth Center
08:16PM 31.8111 -96.8436 208° Southwest 391 450 22,500 -1,020 Descending Fort Worth Center
08:17PM 31.7258 -96.8931 206° Southwest 391 450 22,000 -300 Descending Fort Worth Center
08:18PM 31.6364 -96.9472 207° Southwest 380 437 22,000  Level Fort Worth Center
08:19PM 31.5464 -97.0028 208° Southwest 372 428 22,000  Level Houston Center
08:20PM 31.4531 -97.0594 207° Southwest 373 429 22,000 -540 Level Houston Center
08:21PM 31.3603 -97.1169 208° Southwest 373 429 21,000 -1,500 Descending Houston Center
08:22PM 31.2708 -97.1722 208° Southwest 366 421 19,000 -2,220 Descending Houston Center
08:23PM 31.1683 -97.2264 204° Southwest 348 400 16,500 -2,340 Descending Houston Center
08:24PM 31.0761 -97.2606 198° South 344 396 14,200 -1,740 Descending Houston Center
08:25PM 30.9889 -97.2958 199° South 337 388 13,000 -600 Descending Houston Center
08:26PM 30.9014 -97.3289 198° South 341 392 13,000 -420 Level Houston Center
08:27PM 30.8142 -97.3819 208° Southwest 297 342 12,200 -1,200 Descending Houston Center
08:28PM 30.7442 -97.4272 209° Southwest 286 329 10,600 -1,740 Descending Houston Center
08:29PM 30.6731 -97.4708 208° Southwest 285 328 8,700 -1,500 Descending Houston Center
08:30PM 30.6050 -97.5175 211° Southwest 283 326 7,600 -1,200 Descending Houston Center
08:31PM 30.5444 -97.5633 213° Southwest 263 303 6,300 -1,380 Descending Houston Center
08:32PM 30.4953 -97.6214 226° Southwest 251 289 4,800 -1,500 Descending Houston Center
08:33PM 30.4436 -97.6725 220° Southwest 247 284 3,300 -1,140 Descending Houston Center
08:34PM 30.3894 -97.6847 191° South 210 242 2,500 -420 Descending Houston Center
08:35PM 30.3378 -97.6822 178° South 170 196 2,500  Level Houston Center